Romney, Indiana
Current Conditions -  °F | °C
As of 4:54 PM on Saturday 25 Oct 2014 (Local Time) from KLAF Reporting Station
Clear Clear  
Wind Chill: 72°   Ceiling: Unl
Heat Index: 72°   Visibility: 10mi
Dew Point: 48°   Wind: 12mph
Humidity: 43%   Direction: 280°W
Pressure: 29.93"   Gusts: NA
Location:  40.25°N, 86.9°W
Report Text: KLAF 252054Z 28010KT 10SM CLR 22/09 A2993 RMK AO2 SLP131 T02220089 56008
Loading
Personal Weather Stations






























Interactive Weather Map
Tropical Storm Tracking
New forecast layout! Learn more

10-Day Weather Forecast

Advertisements
Track Severe Weather on mobile